Hishou Maru — JM6643 — position and weather

sailwx.info

Track history (hours):
 
Tides and Currents Weather Stations Pressure Air Temp Water Temp Dewpoint Dewpoint Depression Visibility Wind Speed Wind Dir Waves Ship Positions

Hishou Maru

Last reported at 2018-Jun-25 13:30 UTC. Time now 2018-Jun-25 13:52 UTC.
Position N 34°42' E 135°15'.

Length 76 m; draft 4.1 m.

Type: Cargo ship. MMSI: 431600889.

Date/timePositionNaut miles runAvg speedWind from/ knotsBaromVisibWave heightAir tempDewpointWater temp
2018-Jun-25 13:30N 34°42' E 135°15'0 0.0
2018-Jun-25 13:00N 34°42' E 135°15'0 0.0
2018-Jun-25 12:30N 34°42' E 135°15'0 0.0
2018-Jun-25 12:00N 34°42' E 135°15'0 0.0
2018-Jun-25 11:30N 34°42' E 135°15'0 0.0
2018-Jun-25 11:00N 34°42' E 135°15'0 0.0
2018-Jun-25 10:30N 34°42' E 135°15'0 0.0
2018-Jun-25 09:59N 34°42' E 135°15'0 0.0
2018-Jun-25 09:30N 34°42' E 135°15'0 0.0
2018-Jun-25 09:00N 34°42' E 135°15'0 0.0
2018-Jun-25 08:30N 34°42' E 135°15'0 0.0
2018-Jun-25 08:00N 34°42' E 135°15'0 0.0
2018-Jun-25 07:30N 34°42' E 135°15'1 1.1
2018-Jun-25 07:00N 34°42' E 135°15'0 0.4
2018-Jun-25 06:30N 34°42' E 135°15'2 4.7
2018-Jun-25 06:00N 34°39' E 135°16'1 1.5
2018-Jun-25 05:30N 34°39' E 135°15'0 0.0
2018-Jun-25 05:00N 34°39' E 135°15'0 0.0
2018-Jun-25 04:30N 34°39' E 135°15'0 0.0
2018-Jun-25 03:58N 34°39' E 135°15'0 0.0
2018-Jun-25 03:30N 34°39' E 135°15'0 0.0
2018-Jun-25 03:00N 34°39' E 135°15'0 0.0
2018-Jun-25 02:30N 34°39' E 135°15'0 0.0
2018-Jun-25 01:58N 34°39' E 135°15'0 0.0
2018-Jun-25 01:30N 34°39' E 135°15'0 0.1
2018-Jun-25 01:00N 34°39' E 135°15'0 0.0
2018-Jun-25 00:30N 34°39' E 135°15'0 0.0
2018-Jun-25 00:00N 34°39' E 135°15'0 0.0
2018-Jun-24 23:30N 34°39' E 135°15'0 0.0
2018-Jun-24 23:00N 34°39' E 135°15'0 0.0
2018-Jun-24 22:30N 34°39' E 135°15'0 0.0
2018-Jun-24 22:00N 34°39' E 135°15'0 0.0
2018-Jun-24 21:28N 34°39' E 135°15'0 0.0
2018-Jun-24 21:00N 34°39' E 135°15'0 0.1
2018-Jun-24 20:30N 34°39' E 135°15'0 0.0
2018-Jun-24 20:00N 34°39' E 135°15'0 0.0
2018-Jun-24 19:29N 34°39' E 135°15'0 0.0
2018-Jun-24 19:00N 34°39' E 135°15'0 0.0
2018-Jun-24 18:30N 34°39' E 135°15'0 0.0
2018-Jun-24 18:00N 34°39' E 135°15'2 3.2
2018-Jun-24 17:30N 34°37' E 135°14'611.9
2018-Jun-24 17:00N 34°35' E 135°07'712.6
2018-Jun-24 16:27N 34°37' E 134°59'512.3
2018-Jun-24 16:00N 34°38' E 134°53'4 0.4
2018-Jun-24 05:13N 34°41' E 134°49'311.4
2018-Jun-24 04:59N 34°39' E 134°51'610.8
2018-Jun-24 04:28N 34°38' E 134°57'5 9.7
2018-Jun-24 04:00N 34°37' E 135°03'510.9
2018-Jun-24 03:30N 34°37' E 135°09'510.8
2018-Jun-24 03:00N 34°38' E 135°16'4 7.4
2018-Jun-24 02:29N 34°42' E 135°15'0 0.0
2018-Jun-24 02:00N 34°42' E 135°15'0 0.0
2018-Jun-24 01:30N 34°42' E 135°15'0 0.0
2018-Jun-24 01:00N 34°42' E 135°15'0 0.0
2018-Jun-24 00:30N 34°42' E 135°15'0 0.0
2018-Jun-24 00:00N 34°42' E 135°15'0 0.0
2018-Jun-23 23:30N 34°42' E 135°15'0 0.0
2018-Jun-23 23:00N 34°42' E 135°15'0 0.0
2018-Jun-23 22:30N 34°42' E 135°15'0 0.0
2018-Jun-23 22:00N 34°42' E 135°15'0 0.0
2018-Jun-23 21:30N 34°42' E 135°15'0 0.0
2018-Jun-23 21:00N 34°42' E 135°15'0 0.0
2018-Jun-23 20:30N 34°42' E 135°15'0 0.0
2018-Jun-23 20:00N 34°42' E 135°15'0 0.0
2018-Jun-23 19:30N 34°42' E 135°15'0 0.0
2018-Jun-23 19:00N 34°42' E 135°15'0 0.0
2018-Jun-23 18:30N 34°42' E 135°15'0 0.0
2018-Jun-23 18:00N 34°42' E 135°15'0 0.0
2018-Jun-23 17:30N 34°42' E 135°15'0 0.0
2018-Jun-23 17:00N 34°42' E 135°15'0 0.0
2018-Jun-23 16:30N 34°42' E 135°15'0 0.0
2018-Jun-23 16:00N 34°42' E 135°15'0 0.0
2018-Jun-23 15:30N 34°42' E 135°15'0 0.0
2018-Jun-23 15:00N 34°42' E 135°15'0 0.1
2018-Jun-23 14:30N 34°42' E 135°15'1 2.7
2018-Jun-23 14:00N 34°41' E 135°14'0 0.0
2018-Jun-23 13:30N 34°41' E 135°14'0 0.1
2018-Jun-23 13:00N 34°41' E 135°14'0 0.0
2018-Jun-23 12:30N 34°41' E 135°14'0 0.0
2018-Jun-23 12:00N 34°41' E 135°14'0 0.0
2018-Jun-23 11:30N 34°41' E 135°14'0 0.0
2018-Jun-23 11:00N 34°41' E 135°14'0 0.0
2018-Jun-23 10:30N 34°41' E 135°14'0 0.0
2018-Jun-23 10:00N 34°41' E 135°14'0 0.0
2018-Jun-23 09:30N 34°41' E 135°14'0 0.0
2018-Jun-23 09:00N 34°41' E 135°14'0 0.0
2018-Jun-23 08:30N 34°41' E 135°14'0 0.0
2018-Jun-23 08:00N 34°41' E 135°14'0 0.0
2018-Jun-23 07:30N 34°41' E 135°14'0 0.0
2018-Jun-23 07:00N 34°41' E 135°14'0 0.0
2018-Jun-23 06:30N 34°41' E 135°14'0 0.0
2018-Jun-23 06:00N 34°41' E 135°14'0 0.0
2018-Jun-23 05:30N 34°41' E 135°14'0 0.0
2018-Jun-23 05:00N 34°41' E 135°14'0 0.0
2018-Jun-23 04:30N 34°41' E 135°14'0 0.0
2018-Jun-23 04:00N 34°41' E 135°14'0 0.0
2018-Jun-23 03:30N 34°41' E 135°14'0 0.0
2018-Jun-23 03:00N 34°41' E 135°14'0 0.0
2018-Jun-23 02:30N 34°41' E 135°14'0 0.0
2018-Jun-23 01:59N 34°41' E 135°14'0 0.0
2018-Jun-23 01:30N 34°41' E 135°14'0 0.0
2018-Jun-23 01:00N 34°41' E 135°14'0 0.1
2018-Jun-23 00:30N 34°41' E 135°14'3 6.7
2018-Jun-23 00:00N 34°38' E 135°15'510.9
2018-Jun-22 23:30N 34°36' E 135°09'611.1
2018-Jun-22 23:00N 34°36' E 135°02'611.7
2018-Jun-22 22:30N 34°37' E 134°55'711.7
2018-Jun-22 21:57N 34°40' E 134°48'3 0.4
2018-Jun-22 13:39N 34°44' E 134°49'2 6.0
2018-Jun-22 13:18N 34°42' E 134°48'0 0.9
2018-Jun-22 13:01N 34°41' E 134°48'0 0.9
2018-Jun-22 12:31N 34°42' E 134°47'1 1.2
2018-Jun-22 11:49N 34°41' E 134°48'3 9.9
2018-Jun-22 11:30N 34°39' E 134°51'710.8
2018-Jun-22 10:54N 34°38' E 134°59'511.9
2018-Jun-22 10:30N 34°36' E 135°04'611.9
2018-Jun-22 10:01N 34°37' E 135°11'5 9.0
2018-Jun-22 09:30N 34°40' E 135°15'2 3.8
2018-Jun-22 09:00N 34°42' E 135°15'0 0.0
2018-Jun-22 08:30N 34°42' E 135°15'0 0.0
2018-Jun-22 08:01N 34°42' E 135°15'0 0.0
2018-Jun-22 07:30N 34°42' E 135°15'0 0.0
2018-Jun-22 07:01N 34°42' E 135°15'0 0.0
2018-Jun-22 06:30N 34°42' E 135°15'0 0.0
2018-Jun-22 06:00N 34°42' E 135°15'0 0.0
2018-Jun-22 05:30N 34°42' E 135°15'0 0.0
2018-Jun-22 05:00N 34°42' E 135°15'0 0.0
2018-Jun-22 04:29N 34°42' E 135°15'0 0.0
2018-Jun-22 04:00N 34°42' E 135°15'0 0.0
2018-Jun-22 03:30N 34°42' E 135°15'0 0.0
2018-Jun-22 02:59N 34°42' E 135°15'0 0.0
2018-Jun-22 02:30N 34°42' E 135°15'0 0.0
2018-Jun-22 02:00N 34°42' E 135°15'0 0.0
2018-Jun-22 01:30N 34°42' E 135°15'0 0.0
2018-Jun-22 00:59N 34°42' E 135°15'0 0.0
2018-Jun-22 00:30N 34°42' E 135°15'0 0.0
2018-Jun-21 23:59N 34°42' E 135°15'0 0.0
2018-Jun-21 23:30N 34°42' E 135°15'0 0.0
2018-Jun-21 23:00N 34°42' E 135°15'0 0.0
2018-Jun-21 22:30N 34°42' E 135°15'0 0.0
2018-Jun-21 22:01N 34°42' E 135°15'0 0.0
2018-Jun-21 21:30N 34°42' E 135°15'0 0.0
2018-Jun-21 21:00N 34°42' E 135°15'0 0.0
2018-Jun-21 20:30N 34°42' E 135°15'0 0.0
2018-Jun-21 20:00N 34°42' E 135°15'0 0.0
2018-Jun-21 19:31N 34°42' E 135°15'0 0.0
2018-Jun-21 19:00N 34°42' E 135°15'0 0.0
2018-Jun-21 18:30N 34°42' E 135°15'0 0.0
2018-Jun-21 18:01N 34°42' E 135°15'0 0.0
2018-Jun-21 17:30N 34°42' E 135°15'0 0.0
2018-Jun-21 17:00N 34°42' E 135°15'0 0.0
2018-Jun-21 16:31N 34°42' E 135°15'0 0.0
2018-Jun-21 16:00N 34°42' E 135°15'0 0.0
2018-Jun-21 15:29N 34°42' E 135°15'3 5.7
2018-Jun-21 15:00N 34°40' E 135°15'510.5
2018-Jun-21 14:30N 34°36' E 135°10'611.5
2018-Jun-21 14:00N 34°36' E 135°03'612.1
2018-Jun-21 13:29N 34°37' E 134°56'612.5
2018-Jun-21 13:00N 34°40' E 134°50'4 0.2
2018-Jun-20 18:31N 34°44' E 134°49'1 2.7
2018-Jun-20 18:18N 34°43' E 134°48'2 4.6
2018-Jun-20 17:56N 34°41' E 134°49'1 2.8
2018-Jun-20 17:30N 34°40' E 134°49'0 0.0
2018-Jun-20 17:00N 34°40' E 134°49'0 0.0
2018-Jun-20 16:31N 34°40' E 134°49'0 0.0
2018-Jun-20 16:00N 34°40' E 134°49'0 0.0
2018-Jun-20 15:30N 34°40' E 134°49'0 0.0
2018-Jun-20 15:00N 34°40' E 134°49'1 1.3
2018-Jun-20 14:28N 34°40' E 134°50'612.2
2018-Jun-20 14:00N 34°37' E 134°56'611.4
2018-Jun-20 13:30N 34°36' E 135°03'510.3
2018-Jun-20 13:00N 34°37' E 135°09'611.7
2018-Jun-20 12:30N 34°39' E 135°16'4 7.3
2018-Jun-20 12:00N 34°42' E 135°15'0 0.0
2018-Jun-20 11:30N 34°42' E 135°15'0 0.0
2018-Jun-20 11:00N 34°42' E 135°15'0 0.0
2018-Jun-20 10:30N 34°42' E 135°15'0 0.0
2018-Jun-20 10:00N 34°42' E 135°15'0 0.0
2018-Jun-20 09:30N 34°42' E 135°15'0 0.0
2018-Jun-20 09:00N 34°42' E 135°15'0 0.0
2018-Jun-20 08:31N 34°42' E 135°15'0 0.0
2018-Jun-20 08:00N 34°42' E 135°15'0 0.0
2018-Jun-20 07:30N 34°42' E 135°15'0 0.0
2018-Jun-20 07:00N 34°42' E 135°15'0 0.0
2018-Jun-20 06:30N 34°42' E 135°15'0 0.0
2018-Jun-20 06:01N 34°42' E 135°15'0 0.0
2018-Jun-20 05:31N 34°42' E 135°15'0 0.0
2018-Jun-20 05:00N 34°42' E 135°15'0 0.0
2018-Jun-20 04:29N 34°42' E 135°15'0 0.0
2018-Jun-20 04:00N 34°42' E 135°15'0 0.0
2018-Jun-20 03:30N 34°42' E 135°15'0 0.0
2018-Jun-20 03:00N 34°42' E 135°15'0 0.0
2018-Jun-20 02:30N 34°42' E 135°15'0 0.0
2018-Jun-20 02:00N 34°42' E 135°15'0 0.0
2018-Jun-20 01:31N 34°42' E 135°15'0 0.0
2018-Jun-20 01:00N 34°42' E 135°15'0 0.0
2018-Jun-20 00:29N 34°42' E 135°15'0 0.0
2018-Jun-20 00:00N 34°42' E 135°15'0 0.0
2018-Jun-19 23:30N 34°42' E 135°15'0 0.0
2018-Jun-19 23:00N 34°42' E 135°15'2 4.8
2018-Jun-19 22:30N 34°40' E 135°15'1 2.5
2018-Jun-19 21:59N 34°39' E 135°15'0 0.0
2018-Jun-19 21:30N 34°39' E 135°15'0 0.0
2018-Jun-19 20:58N 34°39' E 135°15'0 0.1
2018-Jun-19 20:30N 34°39' E 135°15'0 0.0
2018-Jun-19 19:58N 34°39' E 135°15'0 0.0
2018-Jun-19 19:27N 34°39' E 135°15'0 0.0
2018-Jun-19 19:00N 34°39' E 135°15'0 0.0
2018-Jun-19 18:30N 34°39' E 135°15'0 0.0
2018-Jun-19 18:00N 34°39' E 135°15'0 0.0
2018-Jun-19 17:30N 34°39' E 135°15'0 0.0
2018-Jun-19 17:00N 34°39' E 135°15'0 0.0
2018-Jun-19 16:30N 34°39' E 135°15'0 0.1
2018-Jun-19 16:01N 34°39' E 135°15'0 0.0
2018-Jun-19 15:30N 34°39' E 135°15'0 0.0
2018-Jun-19 15:00N 34°39' E 135°15'0 0.0
2018-Jun-19 14:30N 34°39' E 135°15'0 0.0
2018-Jun-19 14:00N 34°39' E 135°15'3 6.4
2018-Jun-19 13:29N 34°37' E 135°12'612.3
2018-Jun-19 13:00N 34°35' E 135°05'510.2
2018-Jun-19 12:29N 34°37' E 134°59'611.0
2018-Jun-19 11:57N 34°38' E 134°52'4 0.4
2018-Jun-19 03:15N 34°41' E 134°49'1 2.6
2018-Jun-19 02:58N 34°40' E 134°49'0 0.0
2018-Jun-19 02:30N 34°40' E 134°49'0 0.0
2018-Jun-19 02:00N 34°40' E 134°49'0 0.0
2018-Jun-19 01:29N 34°40' E 134°49'0 0.1
2018-Jun-19 00:53N 34°40' E 134°49'0 0.0
2018-Jun-19 00:30N 34°40' E 134°49'0 0.0
2018-Jun-18 23:57N 34°40' E 134°49'0 0.0
2018-Jun-18 23:29N 34°40' E 134°49'0 0.0
2018-Jun-18 22:59N 34°40' E 134°49'0 0.0
2018-Jun-18 22:29N 34°40' E 134°49'0 0.0
2018-Jun-18 21:56N 34°40' E 134°49'0 0.0
2018-Jun-18 21:30N 34°40' E 134°49'0 0.0
2018-Jun-18 21:01N 34°40' E 134°49'0 0.0
2018-Jun-18 20:30N 34°40' E 134°49'0 0.0
2018-Jun-18 19:58N 34°40' E 134°49'0 0.0
2018-Jun-18 19:29N 34°40' E 134°49'0 0.0
2018-Jun-18 18:59N 34°40' E 134°49'0 0.0
2018-Jun-18 18:29N 34°40' E 134°49'0 0.0
2018-Jun-18 17:59N 34°40' E 134°49'0 0.1
2018-Jun-18 17:30N 34°40' E 134°49'0 0.0
2018-Jun-18 16:59N 34°40' E 134°49'0 0.0
2018-Jun-18 16:30N 34°40' E 134°49'0 0.0
2018-Jun-18 16:00N 34°40' E 134°49'0 0.1
2018-Jun-18 15:30N 34°40' E 134°49'3 6.8
2018-Jun-18 15:00N 34°38' E 134°53'715.0
2018-Jun-18 14:30N 34°37' E 135°01'612.7
2018-Jun-18 14:00N 34°37' E 135°09'611.3
2018-Jun-18 13:30N 34°39' E 135°15'3 6.2
2018-Jun-18 13:00N 34°42' E 135°15'0 0.0
2018-Jun-18 12:30N 34°42' E 135°15'0 0.0
2018-Jun-18 12:00N 34°42' E 135°15'0 0.0
2018-Jun-18 11:30N 34°42' E 135°15'0 0.0
2018-Jun-18 11:00N 34°42' E 135°15'0 0.0
2018-Jun-18 10:30N 34°42' E 135°15'0 0.0
2018-Jun-18 10:00N 34°42' E 135°15'0 0.0
2018-Jun-18 09:30N 34°42' E 135°15'0 0.0
2018-Jun-18 09:00N 34°42' E 135°15'0 0.0
2018-Jun-18 08:30N 34°42' E 135°15'0 0.0
2018-Jun-18 08:00N 34°42' E 135°15'0 0.0
2018-Jun-18 07:30N 34°42' E 135°15'0 0.0
2018-Jun-18 07:00N 34°42' E 135°15'0 0.0
2018-Jun-18 06:30N 34°42' E 135°15'0 0.0
2018-Jun-18 06:00N 34°42' E 135°15'0 0.0
2018-Jun-18 05:30N 34°42' E 135°15'0 0.0
2018-Jun-18 05:00N 34°42' E 135°15'0 0.0
2018-Jun-18 04:30N 34°42' E 135°15'0 0.0
2018-Jun-18 04:00N 34°42' E 135°15'1 1.1
2018-Jun-18 03:30N 34°42' E 135°15'0 0.0
2018-Jun-18 03:00N 34°42' E 135°15'0 0.0
2018-Jun-18 02:30N 34°42' E 135°15'0 0.0
2018-Jun-18 02:00N 34°42' E 135°15'0 0.0
2018-Jun-18 01:30N 34°42' E 135°15'0 0.0
2018-Jun-18 00:59N 34°42' E 135°15'0 0.0
2018-Jun-18 00:30N 34°42' E 135°15'0 0.0
2018-Jun-17 23:59N 34°42' E 135°15'0 0.0
2018-Jun-17 23:29N 34°42' E 135°15'0 0.0
2018-Jun-17 22:58N 34°42' E 135°15'0 0.0
2018-Jun-17 22:30N 34°42' E 135°15'0 0.0
2018-Jun-17 22:00N 34°42' E 135°15'0 0.0
2018-Jun-17 21:30N 34°42' E 135°15'0 0.0
2018-Jun-17 21:00N 34°42' E 135°15'0 0.0
2018-Jun-17 20:30N 34°42' E 135°15'0 0.0
2018-Jun-17 20:00N 34°42' E 135°15'0 0.0
2018-Jun-17 19:30N 34°42' E 135°15'0 0.0
2018-Jun-17 19:00N 34°42' E 135°15'0 0.0
2018-Jun-17 18:30N 34°42' E 135°15'2 3.4
2018-Jun-17 18:00N 34°40' E 135°15'4 9.0
2018-Jun-17 17:30N 34°37' E 135°12'611.1
2018-Jun-17 17:00N 34°35' E 135°05'810.1
2018-Jun-17 16:14N 34°36' E 134°56'2 9.7
2018-Jun-17 16:00N 34°37' E 134°53'611.3
2018-Jun-17 15:30N 34°41' E 134°49'1 0.1
2018-Jun-17 07:49N 34°41' E 134°49'3 9.7
2018-Jun-17 07:28N 34°39' E 134°52'5 9.4
2018-Jun-17 06:59N 34°38' E 134°58'4 8.5
2018-Jun-17 06:30N 34°37' E 135°02'5 9.9
2018-Jun-17 06:00N 34°37' E 135°08'611.8
2018-Jun-17 05:31N 34°38' E 135°15'4 8.3
2018-Jun-17 05:00N 34°42' E 135°15'0 0.0
2018-Jun-17 04:30N 34°42' E 135°15'0 0.0
2018-Jun-17 04:00N 34°42' E 135°15'0 0.0
2018-Jun-17 03:30N 34°42' E 135°15'0 0.0
2018-Jun-17 03:00N 34°42' E 135°15'0 0.0
2018-Jun-17 02:30N 34°42' E 135°15'0 0.0
2018-Jun-17 01:59N 34°42' E 135°15'0 0.0
2018-Jun-17 01:30N 34°42' E 135°15'0 0.0
2018-Jun-17 01:00N 34°42' E 135°15'0 0.0
2018-Jun-17 00:30N 34°42' E 135°15'0 0.0
2018-Jun-17 00:00N 34°42' E 135°15'0 0.0
2018-Jun-16 23:27N 34°42' E 135°15'0 0.0
2018-Jun-16 23:00N 34°42' E 135°15'0 0.0
2018-Jun-16 22:30N 34°42' E 135°15'0 0.0
2018-Jun-16 22:00N 34°42' E 135°15'0 0.0
2018-Jun-16 21:30N 34°42' E 135°15'0 0.0
2018-Jun-16 21:00N 34°42' E 135°15'0 0.0
2018-Jun-16 20:30N 34°42' E 135°15'0 0.0
2018-Jun-16 20:00N 34°42' E 135°15'0 0.0
2018-Jun-16 19:30N 34°42' E 135°15'0 0.0
2018-Jun-16 19:00N 34°42' E 135°15'0 0.0
2018-Jun-16 18:30N 34°42' E 135°15'0 0.0
2018-Jun-16 18:00N 34°42' E 135°15'0 0.0
2018-Jun-16 17:29N 34°42' E 135°15'0 0.0
2018-Jun-16 17:00N 34°42' E 135°15'0 0.0
2018-Jun-16 16:29N 34°42' E 135°15'0 0.0
2018-Jun-16 16:00N 34°42' E 135°15'0 0.0
2018-Jun-16 15:30N 34°42' E 135°15'0 0.0
2018-Jun-16 15:00N 34°42' E 135°15'0 0.0
2018-Jun-16 14:30N 34°42' E 135°15'1 1.3
2018-Jun-16 14:00N 34°42' E 135°15'1 1.6
2018-Jun-16 13:30N 34°41' E 135°14'0 0.0
2018-Jun-16 13:00N 34°41' E 135°14'0 0.0
2018-Jun-16 12:30N 34°41' E 135°14'0 0.0
2018-Jun-16 12:00N 34°41' E 135°14'0 0.1
2018-Jun-16 11:29N 34°41' E 135°14'0 0.0
2018-Jun-16 11:00N 34°41' E 135°14'0 0.0
2018-Jun-16 10:30N 34°41' E 135°14'0 0.0
2018-Jun-16 10:00N 34°41' E 135°14'0 0.0
2018-Jun-16 09:30N 34°41' E 135°14'0 0.0
2018-Jun-16 09:00N 34°41' E 135°14'0 0.0
2018-Jun-16 08:30N 34°41' E 135°14'0 0.0
2018-Jun-16 07:59N 34°41' E 135°14'0 0.0
2018-Jun-16 07:30N 34°41' E 135°14'0 0.0
2018-Jun-16 07:00N 34°41' E 135°14'0 0.0
2018-Jun-16 06:30N 34°41' E 135°14'0 0.0
2018-Jun-16 06:00N 34°41' E 135°14'0 0.0
2018-Jun-16 05:30N 34°41' E 135°14'0 0.0
2018-Jun-16 05:00N 34°41' E 135°14'0 0.0
2018-Jun-16 04:30N 34°41' E 135°14'0 0.0
2018-Jun-16 04:00N 34°41' E 135°14'0 0.0
2018-Jun-16 03:30N 34°41' E 135°14'0 0.0
2018-Jun-16 03:00N 34°41' E 135°14'0 0.1
2018-Jun-16 02:30N 34°41' E 135°14'0 0.1
2018-Jun-16 01:59N 34°41' E 135°14'0 0.0
2018-Jun-16 01:30N 34°41' E 135°14'0 0.0
2018-Jun-16 01:00N 34°41' E 135°14'0 0.4
2018-Jun-16 00:30N 34°41' E 135°14'4 7.9
2018-Jun-16 00:00N 34°37' E 135°14'611.2
2018-Jun-15 23:30N 34°36' E 135°07'510.2
2018-Jun-15 23:00N 34°37' E 135°01'510.0
2018-Jun-15 22:30N 34°36' E 134°55'611.2
2018-Jun-15 22:00N 34°39' E 134°50'4 0.7
2018-Jun-15 15:20N 34°44' E 134°49'2 6.5
2018-Jun-15 14:59N 34°41' E 134°49'511.3
2018-Jun-15 14:30N 34°37' E 134°53'714.7
2018-Jun-15 14:00N 34°37' E 135°02'612.6
2018-Jun-15 13:30N 34°37' E 135°10'  
Track history (hours):
 
Tides and Currents Weather Stations Pressure Air Temp Water Temp Dewpoint Dewpoint Depression Visibility Wind Speed Wind Dir Waves Ship Positions

Hishou Maru

Last reported at 2018-Jun-25 13:30 UTC. Time now 2018-Jun-25 13:52 UTC.
Position N 34°42' E 135°15'.

Length 76 m; draft 4.1 m.

Type: Cargo ship. MMSI: 431600889.

Date/timePositionNaut miles runAvg speedWind from/ knotsBaromVisibWave heightAir tempDewpointWater temp
2018-Jun-25 13:30N 34°42' E 135°15'0 0.0
2018-Jun-25 13:00N 34°42' E 135°15'0 0.0
2018-Jun-25 12:30N 34°42' E 135°15'0 0.0
2018-Jun-25 12:00N 34°42' E 135°15'0 0.0
2018-Jun-25 11:30N 34°42' E 135°15'0 0.0
2018-Jun-25 11:00N 34°42' E 135°15'0 0.0
2018-Jun-25 10:30N 34°42' E 135°15'0 0.0
2018-Jun-25 09:59N 34°42' E 135°15'0 0.0
2018-Jun-25 09:30N 34°42' E 135°15'0 0.0
2018-Jun-25 09:00N 34°42' E 135°15'0 0.0
2018-Jun-25 08:30N 34°42' E 135°15'0 0.0
2018-Jun-25 08:00N 34°42' E 135°15'0 0.0
2018-Jun-25 07:30N 34°42' E 135°15'1 1.1
2018-Jun-25 07:00N 34°42' E 135°15'0 0.4
2018-Jun-25 06:30N 34°42' E 135°15'2 4.7
2018-Jun-25 06:00N 34°39' E 135°16'1 1.5
2018-Jun-25 05:30N 34°39' E 135°15'0 0.0
2018-Jun-25 05:00N 34°39' E 135°15'0 0.0
2018-Jun-25 04:30N 34°39' E 135°15'0 0.0
2018-Jun-25 03:58N 34°39' E 135°15'0 0.0
2018-Jun-25 03:30N 34°39' E 135°15'0 0.0
2018-Jun-25 03:00N 34°39' E 135°15'0 0.0
2018-Jun-25 02:30N 34°39' E 135°15'0 0.0
2018-Jun-25 01:58N 34°39' E 135°15'0 0.0
2018-Jun-25 01:30N 34°39' E 135°15'0 0.1
2018-Jun-25 01:00N 34°39' E 135°15'0 0.0
2018-Jun-25 00:30N 34°39' E 135°15'0 0.0
2018-Jun-25 00:00N 34°39' E 135°15'0 0.0
2018-Jun-24 23:30N 34°39' E 135°15'0 0.0
2018-Jun-24 23:00N 34°39' E 135°15'0 0.0
2018-Jun-24 22:30N 34°39' E 135°15'0 0.0
2018-Jun-24 22:00N 34°39' E 135°15'0 0.0
2018-Jun-24 21:28N 34°39' E 135°15'0 0.0
2018-Jun-24 21:00N 34°39' E 135°15'0 0.1
2018-Jun-24 20:30N 34°39' E 135°15'0 0.0
2018-Jun-24 20:00N 34°39' E 135°15'0 0.0
2018-Jun-24 19:29N 34°39' E 135°15'0 0.0
2018-Jun-24 19:00N 34°39' E 135°15'0 0.0
2018-Jun-24 18:30N 34°39' E 135°15'0 0.0
2018-Jun-24 18:00N 34°39' E 135°15'2 3.2
2018-Jun-24 17:30N 34°37' E 135°14'611.9
2018-Jun-24 17:00N 34°35' E 135°07'712.6
2018-Jun-24 16:27N 34°37' E 134°59'512.3
2018-Jun-24 16:00N 34°38' E 134°53'4 0.4
2018-Jun-24 05:13N 34°41' E 134°49'311.4
2018-Jun-24 04:59N 34°39' E 134°51'610.8
2018-Jun-24 04:28N 34°38' E 134°57'5 9.7
2018-Jun-24 04:00N 34°37' E 135°03'510.9
2018-Jun-24 03:30N 34°37' E 135°09'510.8
2018-Jun-24 03:00N 34°38' E 135°16'4 7.4
2018-Jun-24 02:29N 34°42' E 135°15'0 0.0
2018-Jun-24 02:00N 34°42' E 135°15'0 0.0
2018-Jun-24 01:30N 34°42' E 135°15'0 0.0
2018-Jun-24 01:00N 34°42' E 135°15'0 0.0
2018-Jun-24 00:30N 34°42' E 135°15'0 0.0
2018-Jun-24 00:00N 34°42' E 135°15'0 0.0
2018-Jun-23 23:30N 34°42' E 135°15'0 0.0
2018-Jun-23 23:00N 34°42' E 135°15'0 0.0
2018-Jun-23 22:30N 34°42' E 135°15'0 0.0
2018-Jun-23 22:00N 34°42' E 135°15'0 0.0
2018-Jun-23 21:30N 34°42' E 135°15'0 0.0
2018-Jun-23 21:00N 34°42' E 135°15'0 0.0
2018-Jun-23 20:30N 34°42' E 135°15'0 0.0
2018-Jun-23 20:00N 34°42' E 135°15'0 0.0
2018-Jun-23 19:30N 34°42' E 135°15'0 0.0
2018-Jun-23 19:00N 34°42' E 135°15'0 0.0
2018-Jun-23 18:30N 34°42' E 135°15'0 0.0
2018-Jun-23 18:00N 34°42' E 135°15'0 0.0
2018-Jun-23 17:30N 34°42' E 135°15'0 0.0
2018-Jun-23 17:00N 34°42' E 135°15'0 0.0
2018-Jun-23 16:30N 34°42' E 135°15'0 0.0
2018-Jun-23 16:00N 34°42' E 135°15'0 0.0
2018-Jun-23 15:30N 34°42' E 135°15'0 0.0
2018-Jun-23 15:00N 34°42' E 135°15'0 0.1
2018-Jun-23 14:30N 34°42' E 135°15'1 2.7
2018-Jun-23 14:00N 34°41' E 135°14'0 0.0
2018-Jun-23 13:30N 34°41' E 135°14'0 0.1
2018-Jun-23 13:00N 34°41' E 135°14'0 0.0
2018-Jun-23 12:30N 34°41' E 135°14'0 0.0
2018-Jun-23 12:00N 34°41' E 135°14'0 0.0
2018-Jun-23 11:30N 34°41' E 135°14'0 0.0
2018-Jun-23 11:00N 34°41' E 135°14'0 0.0
2018-Jun-23 10:30N 34°41' E 135°14'0 0.0
2018-Jun-23 10:00N 34°41' E 135°14'0 0.0
2018-Jun-23 09:30N 34°41' E 135°14'0 0.0
2018-Jun-23 09:00N 34°41' E 135°14'0 0.0
2018-Jun-23 08:30N 34°41' E 135°14'0 0.0
2018-Jun-23 08:00N 34°41' E 135°14'0 0.0
2018-Jun-23 07:30N 34°41' E 135°14'0 0.0
2018-Jun-23 07:00N 34°41' E 135°14'0 0.0
2018-Jun-23 06:30N 34°41' E 135°14'0 0.0
2018-Jun-23 06:00N 34°41' E 135°14'0 0.0
2018-Jun-23 05:30N 34°41' E 135°14'0 0.0
2018-Jun-23 05:00N 34°41' E 135°14'0 0.0
2018-Jun-23 04:30N 34°41' E 135°14'0 0.0
2018-Jun-23 04:00N 34°41' E 135°14'0 0.0
2018-Jun-23 03:30N 34°41' E 135°14'0 0.0
2018-Jun-23 03:00N 34°41' E 135°14'0 0.0
2018-Jun-23 02:30N 34°41' E 135°14'0 0.0
2018-Jun-23 01:59N 34°41' E 135°14'0 0.0
2018-Jun-23 01:30N 34°41' E 135°14'0 0.0
2018-Jun-23 01:00N 34°41' E 135°14'0 0.1
2018-Jun-23 00:30N 34°41' E 135°14'3 6.7
2018-Jun-23 00:00N 34°38' E 135°15'510.9
2018-Jun-22 23:30N 34°36' E 135°09'611.1
2018-Jun-22 23:00N 34°36' E 135°02'611.7
2018-Jun-22 22:30N 34°37' E 134°55'711.7
2018-Jun-22 21:57N 34°40' E 134°48'3 0.4
2018-Jun-22 13:39N 34°44' E 134°49'2 6.0
2018-Jun-22 13:18N 34°42' E 134°48'0 0.9
2018-Jun-22 13:01N 34°41' E 134°48'0 0.9
2018-Jun-22 12:31N 34°42' E 134°47'1 1.2
2018-Jun-22 11:49N 34°41' E 134°48'3 9.9
2018-Jun-22 11:30N 34°39' E 134°51'710.8
2018-Jun-22 10:54N 34°38' E 134°59'511.9
2018-Jun-22 10:30N 34°36' E 135°04'611.9
2018-Jun-22 10:01N 34°37' E 135°11'5 9.0
2018-Jun-22 09:30N 34°40' E 135°15'2 3.8
2018-Jun-22 09:00N 34°42' E 135°15'0 0.0
2018-Jun-22 08:30N 34°42' E 135°15'0 0.0
2018-Jun-22 08:01N 34°42' E 135°15'0 0.0
2018-Jun-22 07:30N 34°42' E 135°15'0 0.0
2018-Jun-22 07:01N 34°42' E 135°15'0 0.0
2018-Jun-22 06:30N 34°42' E 135°15'0 0.0
2018-Jun-22 06:00N 34°42' E 135°15'0 0.0
2018-Jun-22 05:30N 34°42' E 135°15'0 0.0
2018-Jun-22 05:00N 34°42' E 135°15'0 0.0
2018-Jun-22 04:29N 34°42' E 135°15'0 0.0
2018-Jun-22 04:00N 34°42' E 135°15'0 0.0
2018-Jun-22 03:30N 34°42' E 135°15'0 0.0
2018-Jun-22 02:59N 34°42' E 135°15'0 0.0
2018-Jun-22 02:30N 34°42' E 135°15'0 0.0
2018-Jun-22 02:00N 34°42' E 135°15'0 0.0
2018-Jun-22 01:30N 34°42' E 135°15'0 0.0
2018-Jun-22 00:59N 34°42' E 135°15'0 0.0
2018-Jun-22 00:30N 34°42' E 135°15'0 0.0
2018-Jun-21 23:59N 34°42' E 135°15'0 0.0
2018-Jun-21 23:30N 34°42' E 135°15'0 0.0
2018-Jun-21 23:00N 34°42' E 135°15'0 0.0
2018-Jun-21 22:30N 34°42' E 135°15'0 0.0
2018-Jun-21 22:01N 34°42' E 135°15'0 0.0
2018-Jun-21 21:30N 34°42' E 135°15'0 0.0
2018-Jun-21 21:00N 34°42' E 135°15'0 0.0
2018-Jun-21 20:30N 34°42' E 135°15'0 0.0
2018-Jun-21 20:00N 34°42' E 135°15'0 0.0
2018-Jun-21 19:31N 34°42' E 135°15'0 0.0
2018-Jun-21 19:00N 34°42' E 135°15'0 0.0
2018-Jun-21 18:30N 34°42' E 135°15'0 0.0
2018-Jun-21 18:01N 34°42' E 135°15'0 0.0
2018-Jun-21 17:30N 34°42' E 135°15'0 0.0
2018-Jun-21 17:00N 34°42' E 135°15'0 0.0
2018-Jun-21 16:31N 34°42' E 135°15'0 0.0
2018-Jun-21 16:00N 34°42' E 135°15'0 0.0
2018-Jun-21 15:29N 34°42' E 135°15'3 5.7
2018-Jun-21 15:00N 34°40' E 135°15'510.5
2018-Jun-21 14:30N 34°36' E 135°10'611.5
2018-Jun-21 14:00N 34°36' E 135°03'612.1
2018-Jun-21 13:29N 34°37' E 134°56'612.5
2018-Jun-21 13:00N 34°40' E 134°50'4 0.2
2018-Jun-20 18:31N 34°44' E 134°49'1 2.7
2018-Jun-20 18:18N 34°43' E 134°48'2 4.6
2018-Jun-20 17:56N 34°41' E 134°49'1 2.8
2018-Jun-20 17:30N 34°40' E 134°49'0 0.0
2018-Jun-20 17:00N 34°40' E 134°49'0 0.0
2018-Jun-20 16:31N 34°40' E 134°49'0 0.0
2018-Jun-20 16:00N 34°40' E 134°49'0 0.0
2018-Jun-20 15:30N 34°40' E 134°49'0 0.0
2018-Jun-20 15:00N 34°40' E 134°49'1 1.3
2018-Jun-20 14:28N 34°40' E 134°50'612.2
2018-Jun-20 14:00N 34°37' E 134°56'611.4
2018-Jun-20 13:30N 34°36' E 135°03'510.3
2018-Jun-20 13:00N 34°37' E 135°09'611.7
2018-Jun-20 12:30N 34°39' E 135°16'4 7.3
2018-Jun-20 12:00N 34°42' E 135°15'0 0.0
2018-Jun-20 11:30N 34°42' E 135°15'0 0.0
2018-Jun-20 11:00N 34°42' E 135°15'0 0.0
2018-Jun-20 10:30N 34°42' E 135°15'0 0.0
2018-Jun-20 10:00N 34°42' E 135°15'0 0.0
2018-Jun-20 09:30N 34°42' E 135°15'0 0.0
2018-Jun-20 09:00N 34°42' E 135°15'0 0.0
2018-Jun-20 08:31N 34°42' E 135°15'0 0.0
2018-Jun-20 08:00N 34°42' E 135°15'0 0.0
2018-Jun-20 07:30N 34°42' E 135°15'0 0.0
2018-Jun-20 07:00N 34°42' E 135°15'0 0.0
2018-Jun-20 06:30N 34°42' E 135°15'0 0.0
2018-Jun-20 06:01N 34°42' E 135°15'0 0.0
2018-Jun-20 05:31N 34°42' E 135°15'0 0.0
2018-Jun-20 05:00N 34°42' E 135°15'0 0.0
2018-Jun-20 04:29N 34°42' E 135°15'0 0.0
2018-Jun-20 04:00N 34°42' E 135°15'0 0.0
2018-Jun-20 03:30N 34°42' E 135°15'0 0.0
2018-Jun-20 03:00N 34°42' E 135°15'0 0.0
2018-Jun-20 02:30N 34°42' E 135°15'0 0.0
2018-Jun-20 02:00N 34°42' E 135°15'0 0.0
2018-Jun-20 01:31N 34°42' E 135°15'0 0.0
2018-Jun-20 01:00N 34°42' E 135°15'0 0.0
2018-Jun-20 00:29N 34°42' E 135°15'0 0.0
2018-Jun-20 00:00N 34°42' E 135°15'0 0.0
2018-Jun-19 23:30N 34°42' E 135°15'0 0.0
2018-Jun-19 23:00N 34°42' E 135°15'2 4.8
2018-Jun-19 22:30N 34°40' E 135°15'1 2.5
2018-Jun-19 21:59N 34°39' E 135°15'0 0.0
2018-Jun-19 21:30N 34°39' E 135°15'0 0.0
2018-Jun-19 20:58N 34°39' E 135°15'0 0.1
2018-Jun-19 20:30N 34°39' E 135°15'0 0.0
2018-Jun-19 19:58N 34°39' E 135°15'0 0.0
2018-Jun-19 19:27N 34°39' E 135°15'0 0.0
2018-Jun-19 19:00N 34°39' E 135°15'0 0.0
2018-Jun-19 18:30N 34°39' E 135°15'0 0.0
2018-Jun-19 18:00N 34°39' E 135°15'0 0.0
2018-Jun-19 17:30N 34°39' E 135°15'0 0.0
2018-Jun-19 17:00N 34°39' E 135°15'0 0.0
2018-Jun-19 16:30N 34°39' E 135°15'0 0.1
2018-Jun-19 16:01N 34°39' E 135°15'0 0.0
2018-Jun-19 15:30N 34°39' E 135°15'0 0.0
2018-Jun-19 15:00N 34°39' E 135°15'0 0.0
2018-Jun-19 14:30N 34°39' E 135°15'0 0.0
2018-Jun-19 14:00N 34°39' E 135°15'3 6.4
2018-Jun-19 13:29N 34°37' E 135°12'612.3
2018-Jun-19 13:00N 34°35' E 135°05'510.2
2018-Jun-19 12:29N 34°37' E 134°59'611.0
2018-Jun-19 11:57N 34°38' E 134°52'4 0.4
2018-Jun-19 03:15N 34°41' E 134°49'1 2.6
2018-Jun-19 02:58N 34°40' E 134°49'0 0.0
2018-Jun-19 02:30N 34°40' E 134°49'0 0.0
2018-Jun-19 02:00N 34°40' E 134°49'0 0.0
2018-Jun-19 01:29N 34°40' E 134°49'0 0.1
2018-Jun-19 00:53N 34°40' E 134°49'0 0.0
2018-Jun-19 00:30N 34°40' E 134°49'0 0.0
2018-Jun-18 23:57N 34°40' E 134°49'0 0.0
2018-Jun-18 23:29N 34°40' E 134°49'0 0.0
2018-Jun-18 22:59N 34°40' E 134°49'0 0.0
2018-Jun-18 22:29N 34°40' E 134°49'0 0.0
2018-Jun-18 21:56N 34°40' E 134°49'0 0.0
2018-Jun-18 21:30N 34°40' E 134°49'0 0.0
2018-Jun-18 21:01N 34°40' E 134°49'0 0.0
2018-Jun-18 20:30N 34°40' E 134°49'0 0.0
2018-Jun-18 19:58N 34°40' E 134°49'0 0.0
2018-Jun-18 19:29N 34°40' E 134°49'0 0.0
2018-Jun-18 18:59N 34°40' E 134°49'0 0.0
2018-Jun-18 18:29N 34°40' E 134°49'0 0.0
2018-Jun-18 17:59N 34°40' E 134°49'0 0.1
2018-Jun-18 17:30N 34°40' E 134°49'0 0.0
2018-Jun-18 16:59N 34°40' E 134°49'0 0.0
2018-Jun-18 16:30N 34°40' E 134°49'0 0.0
2018-Jun-18 16:00N 34°40' E 134°49'0 0.1
2018-Jun-18 15:30N 34°40' E 134°49'3 6.8
2018-Jun-18 15:00N 34°38' E 134°53'715.0
2018-Jun-18 14:30N 34°37' E 135°01'612.7
2018-Jun-18 14:00N 34°37' E 135°09'611.3
2018-Jun-18 13:30N 34°39' E 135°15'3 6.2
2018-Jun-18 13:00N 34°42' E 135°15'0 0.0
2018-Jun-18 12:30N 34°42' E 135°15'0 0.0
2018-Jun-18 12:00N 34°42' E 135°15'0 0.0
2018-Jun-18 11:30N 34°42' E 135°15'0 0.0
2018-Jun-18 11:00N 34°42' E 135°15'0 0.0
2018-Jun-18 10:30N 34°42' E 135°15'0 0.0
2018-Jun-18 10:00N 34°42' E 135°15'0 0.0
2018-Jun-18 09:30N 34°42' E 135°15'0 0.0
2018-Jun-18 09:00N 34°42' E 135°15'0 0.0
2018-Jun-18 08:30N 34°42' E 135°15'0 0.0
2018-Jun-18 08:00N 34°42' E 135°15'0 0.0
2018-Jun-18 07:30N 34°42' E 135°15'0 0.0
2018-Jun-18 07:00N 34°42' E 135°15'0 0.0
2018-Jun-18 06:30N 34°42' E 135°15'0 0.0
2018-Jun-18 06:00N 34°42' E 135°15'0 0.0
2018-Jun-18 05:30N 34°42' E 135°15'0 0.0
2018-Jun-18 05:00N 34°42' E 135°15'0 0.0
2018-Jun-18 04:30N 34°42' E 135°15'0 0.0
2018-Jun-18 04:00N 34°42' E 135°15'1 1.1
2018-Jun-18 03:30N 34°42' E 135°15'0 0.0
2018-Jun-18 03:00N 34°42' E 135°15'0 0.0
2018-Jun-18 02:30N 34°42' E 135°15'0 0.0
2018-Jun-18 02:00N 34°42' E 135°15'0 0.0
2018-Jun-18 01:30N 34°42' E 135°15'0 0.0
2018-Jun-18 00:59N 34°42' E 135°15'0 0.0
2018-Jun-18 00:30N 34°42' E 135°15'0 0.0
2018-Jun-17 23:59N 34°42' E 135°15'0 0.0
2018-Jun-17 23:29N 34°42' E 135°15'0 0.0
2018-Jun-17 22:58N 34°42' E 135°15'0 0.0
2018-Jun-17 22:30N 34°42' E 135°15'0 0.0
2018-Jun-17 22:00N 34°42' E 135°15'0 0.0
2018-Jun-17 21:30N 34°42' E 135°15'0 0.0
2018-Jun-17 21:00N 34°42' E 135°15'0 0.0
2018-Jun-17 20:30N 34°42' E 135°15'0 0.0
2018-Jun-17 20:00N 34°42' E 135°15'0 0.0
2018-Jun-17 19:30N 34°42' E 135°15'0 0.0
2018-Jun-17 19:00N 34°42' E 135°15'0 0.0
2018-Jun-17 18:30N 34°42' E 135°15'2 3.4
2018-Jun-17 18:00N 34°40' E 135°15'4 9.0
2018-Jun-17 17:30N 34°37' E 135°12'611.1
2018-Jun-17 17:00N 34°35' E 135°05'810.1
2018-Jun-17 16:14N 34°36' E 134°56'2 9.7
2018-Jun-17 16:00N 34°37' E 134°53'611.3
2018-Jun-17 15:30N 34°41' E 134°49'1 0.1
2018-Jun-17 07:49N 34°41' E 134°49'3 9.7
2018-Jun-17 07:28N 34°39' E 134°52'5 9.4
2018-Jun-17 06:59N 34°38' E 134°58'4 8.5
2018-Jun-17 06:30N 34°37' E 135°02'5 9.9
2018-Jun-17 06:00N 34°37' E 135°08'611.8
2018-Jun-17 05:31N 34°38' E 135°15'4 8.3
2018-Jun-17 05:00N 34°42' E 135°15'0 0.0
2018-Jun-17 04:30N 34°42' E 135°15'0 0.0
2018-Jun-17 04:00N 34°42' E 135°15'0 0.0
2018-Jun-17 03:30N 34°42' E 135°15'0 0.0
2018-Jun-17 03:00N 34°42' E 135°15'0 0.0
2018-Jun-17 02:30N 34°42' E 135°15'0 0.0
2018-Jun-17 01:59N 34°42' E 135°15'0 0.0
2018-Jun-17 01:30N 34°42' E 135°15'0 0.0
2018-Jun-17 01:00N 34°42' E 135°15'0 0.0
2018-Jun-17 00:30N 34°42' E 135°15'0 0.0
2018-Jun-17 00:00N 34°42' E 135°15'0 0.0
2018-Jun-16 23:27N 34°42' E 135°15'0 0.0
2018-Jun-16 23:00N 34°42' E 135°15'0 0.0
2018-Jun-16 22:30N 34°42' E 135°15'0 0.0
2018-Jun-16 22:00N 34°42' E 135°15'0 0.0
2018-Jun-16 21:30N 34°42' E 135°15'0 0.0
2018-Jun-16 21:00N 34°42' E 135°15'0 0.0
2018-Jun-16 20:30N 34°42' E 135°15'0 0.0
2018-Jun-16 20:00N 34°42' E 135°15'0 0.0
2018-Jun-16 19:30N 34°42' E 135°15'0 0.0
2018-Jun-16 19:00N 34°42' E 135°15'0 0.0
2018-Jun-16 18:30N 34°42' E 135°15'0 0.0
2018-Jun-16 18:00N 34°42' E 135°15'0 0.0
2018-Jun-16 17:29N 34°42' E 135°15'0 0.0
2018-Jun-16 17:00N 34°42' E 135°15'0 0.0
2018-Jun-16 16:29N 34°42' E 135°15'0 0.0
2018-Jun-16 16:00N 34°42' E 135°15'0 0.0
2018-Jun-16 15:30N 34°42' E 135°15'0 0.0
2018-Jun-16 15:00N 34°42' E 135°15'0 0.0
2018-Jun-16 14:30N 34°42' E 135°15'1 1.3
2018-Jun-16 14:00N 34°42' E 135°15'1 1.6
2018-Jun-16 13:30N 34°41' E 135°14'0 0.0
2018-Jun-16 13:00N 34°41' E 135°14'0 0.0
2018-Jun-16 12:30N 34°41' E 135°14'0 0.0
2018-Jun-16 12:00N 34°41' E 135°14'0 0.1
2018-Jun-16 11:29N 34°41' E 135°14'0 0.0
2018-Jun-16 11:00N 34°41' E 135°14'0 0.0
2018-Jun-16 10:30N 34°41' E 135°14'0 0.0
2018-Jun-16 10:00N 34°41' E 135°14'0 0.0
2018-Jun-16 09:30N 34°41' E 135°14'0 0.0
2018-Jun-16 09:00N 34°41' E 135°14'0 0.0
2018-Jun-16 08:30N 34°41' E 135°14'0 0.0
2018-Jun-16 07:59N 34°41' E 135°14'0 0.0
2018-Jun-16 07:30N 34°41' E 135°14'0 0.0
2018-Jun-16 07:00N 34°41' E 135°14'0 0.0
2018-Jun-16 06:30N 34°41' E 135°14'0 0.0
2018-Jun-16 06:00N 34°41' E 135°14'0 0.0
2018-Jun-16 05:30N 34°41' E 135°14'0 0.0
2018-Jun-16 05:00N 34°41' E 135°14'0 0.0
2018-Jun-16 04:30N 34°41' E 135°14'0 0.0
2018-Jun-16 04:00N 34°41' E 135°14'0 0.0
2018-Jun-16 03:30N 34°41' E 135°14'0 0.0
2018-Jun-16 03:00N 34°41' E 135°14'0 0.1
2018-Jun-16 02:30N 34°41' E 135°14'0 0.1
2018-Jun-16 01:59N 34°41' E 135°14'0 0.0
2018-Jun-16 01:30N 34°41' E 135°14'0 0.0
2018-Jun-16 01:00N 34°41' E 135°14'0 0.4
2018-Jun-16 00:30N 34°41' E 135°14'4 7.9
2018-Jun-16 00:00N 34°37' E 135°14'611.2
2018-Jun-15 23:30N 34°36' E 135°07'510.2
2018-Jun-15 23:00N 34°37' E 135°01'510.0
2018-Jun-15 22:30N 34°36' E 134°55'611.2
2018-Jun-15 22:00N 34°39' E 134°50'4 0.7
2018-Jun-15 15:20N 34°44' E 134°49'2 6.5
2018-Jun-15 14:59N 34°41' E 134°49'511.3
2018-Jun-15 14:30N 34°37' E 134°53'714.7
2018-Jun-15 14:00N 34°37' E 135°02'612.6
2018-Jun-15 13:30N 34°37' E 135°10'  

Dump ship's entire track history